sensor_id;sensor_type;location;lat;lon;timestamp;P1;durP1;ratioP1;P2;durP2;ratioP2
23802;SDS011;12082;51.786;6.018;2023-10-31T00:02:07;50.60;;;48.23;;
23802;SDS011;12082;51.786;6.018;2023-10-31T00:04:33;56.00;;;53.27;;
23802;SDS011;12082;51.786;6.018;2023-10-31T00:06:58;58.43;;;55.73;;
23802;SDS011;12082;51.786;6.018;2023-10-31T00:09:24;58.87;;;56.03;;
23802;SDS011;12082;51.786;6.018;2023-10-31T00:11:49;50.47;;;48.07;;
23802;SDS011;12082;51.786;6.018;2023-10-31T00:14:16;61.90;;;58.87;;
23802;SDS011;12082;51.786;6.018;2023-10-31T00:16:41;57.50;;;54.73;;
23802;SDS011;12082;51.786;6.018;2023-10-31T00:19:07;57.83;;;55.03;;
23802;SDS011;12082;51.786;6.018;2023-10-31T00:21:32;71.67;;;68.10;;
23802;SDS011;12082;51.786;6.018;2023-10-31T00:23:58;65.93;;;62.73;;
23802;SDS011;12082;51.786;6.018;2023-10-31T00:26:23;69.90;;;66.47;;
23802;SDS011;12082;51.786;6.018;2023-10-31T00:28:49;84.17;;;79.97;;
23802;SDS011;12082;51.786;6.018;2023-10-31T00:31:15;105.47;;;100.00;;
23802;SDS011;12082;51.786;6.018;2023-10-31T00:33:40;102.80;;;97.53;;
23802;SDS011;12082;51.786;6.018;2023-10-31T00:36:07;110.23;;;104.70;;
23802;SDS011;12082;51.786;6.018;2023-10-31T00:38:33;101.93;;;96.80;;
23802;SDS011;12082;51.786;6.018;2023-10-31T00:40:58;103.93;;;98.57;;
23802;SDS011;12082;51.786;6.018;2023-10-31T00:43:24;107.20;;;101.73;;
23802;SDS011;12082;51.786;6.018;2023-10-31T00:45:49;95.70;;;90.70;;
23802;SDS011;12082;51.786;6.018;2023-10-31T00:48:15;120.67;;;114.40;;
23802;SDS011;12082;51.786;6.018;2023-10-31T00:50:41;117.37;;;111.40;;
23802;SDS011;12082;51.786;6.018;2023-10-31T00:53:06;110.70;;;105.00;;
23802;SDS011;12082;51.786;6.018;2023-10-31T00:55:33;106.27;;;100.73;;
23802;SDS011;12082;51.786;6.018;2023-10-31T00:57:58;117.60;;;111.53;;
23802;SDS011;12082;51.786;6.018;2023-10-31T01:00:24;104.63;;;99.37;;
23802;SDS011;12082;51.786;6.018;2023-10-31T01:02:49;144.33;;;137.07;;
23802;SDS011;12082;51.786;6.018;2023-10-31T01:05:15;120.67;;;114.53;;
23802;SDS011;12082;51.786;6.018;2023-10-31T01:07:41;147.00;;;139.43;;
23802;SDS011;12082;51.786;6.018;2023-10-31T01:10:07;138.23;;;130.70;;
23802;SDS011;12082;51.786;6.018;2023-10-31T01:12:32;143.40;;;135.67;;
23802;SDS011;12082;51.786;6.018;2023-10-31T01:14:58;144.13;;;136.60;;
23802;SDS011;12082;51.786;6.018;2023-10-31T01:17:24;135.97;;;129.17;;
23802;SDS011;12082;51.786;6.018;2023-10-31T01:19:49;110.57;;;105.07;;
23802;SDS011;12082;51.786;6.018;2023-10-31T01:22:15;133.50;;;126.83;;
23802;SDS011;12082;51.786;6.018;2023-10-31T01:24:40;134.30;;;127.63;;
23802;SDS011;12082;51.786;6.018;2023-10-31T01:27:06;127.10;;;120.70;;
23802;SDS011;12082;51.786;6.018;2023-10-31T01:29:31;136.83;;;130.00;;
23802;SDS011;12082;51.786;6.018;2023-10-31T01:31:57;122.90;;;116.73;;
23802;SDS011;12082;51.786;6.018;2023-10-31T01:34:22;135.83;;;128.93;;
23802;SDS011;12082;51.786;6.018;2023-10-31T01:36:48;147.23;;;139.67;;
23802;SDS011;12082;51.786;6.018;2023-10-31T01:39:14;151.07;;;142.90;;
23802;SDS011;12082;51.786;6.018;2023-10-31T01:41:42;152.73;;;144.27;;
23802;SDS011;12082;51.786;6.018;2023-10-31T01:44:08;140.13;;;132.67;;
23802;SDS011;12082;51.786;6.018;2023-10-31T01:46:34;142.33;;;134.37;;
23802;SDS011;12082;51.786;6.018;2023-10-31T01:49:00;159.23;;;150.30;;
23802;SDS011;12082;51.786;6.018;2023-10-31T01:51:26;152.77;;;143.83;;
23802;SDS011;12082;51.786;6.018;2023-10-31T01:53:53;176.70;;;166.60;;
23802;SDS011;12082;51.786;6.018;2023-10-31T01:56:19;160.87;;;151.83;;
23802;SDS011;12082;51.786;6.018;2023-10-31T01:58:45;154.87;;;146.33;;
23802;SDS011;12082;51.786;6.018;2023-10-31T02:01:13;163.20;;;154.07;;
23802;SDS011;12082;51.786;6.018;2023-10-31T02:03:38;147.43;;;139.13;;
23802;SDS011;12082;51.786;6.018;2023-10-31T02:06:04;119.93;;;113.37;;
23802;SDS011;12082;51.786;6.018;2023-10-31T02:08:30;120.87;;;114.33;;
23802;SDS011;12082;51.786;6.018;2023-10-31T02:10:56;120.20;;;113.77;;
23802;SDS011;12082;51.786;6.018;2023-10-31T02:13:21;119.10;;;112.93;;
23802;SDS011;12082;51.786;6.018;2023-10-31T02:15:47;107.57;;;101.77;;
23802;SDS011;12082;51.786;6.018;2023-10-31T02:18:13;98.07;;;93.10;;
23802;SDS011;12082;51.786;6.018;2023-10-31T02:20:39;100.77;;;95.50;;
23802;SDS011;12082;51.786;6.018;2023-10-31T02:23:05;99.23;;;93.97;;
23802;SDS011;12082;51.786;6.018;2023-10-31T02:25:31;99.20;;;94.07;;
23802;SDS011;12082;51.786;6.018;2023-10-31T02:27:56;115.53;;;109.77;;
23802;SDS011;12082;51.786;6.018;2023-10-31T02:30:23;119.43;;;112.77;;
23802;SDS011;12082;51.786;6.018;2023-10-31T02:32:49;122.27;;;115.77;;
23802;SDS011;12082;51.786;6.018;2023-10-31T02:35:18;117.40;;;111.27;;
23802;SDS011;12082;51.786;6.018;2023-10-31T02:37:44;113.13;;;107.33;;
23802;SDS011;12082;51.786;6.018;2023-10-31T02:40:10;119.93;;;113.67;;
23802;SDS011;12082;51.786;6.018;2023-10-31T02:42:37;130.23;;;123.27;;
23802;SDS011;12082;51.786;6.018;2023-10-31T02:45:02;132.10;;;125.07;;
23802;SDS011;12082;51.786;6.018;2023-10-31T02:47:28;129.93;;;122.83;;
23802;SDS011;12082;51.786;6.018;2023-10-31T02:49:54;123.27;;;116.63;;
23802;SDS011;12082;51.786;6.018;2023-10-31T02:52:20;134.00;;;126.97;;
23802;SDS011;12082;51.786;6.018;2023-10-31T02:54:45;131.07;;;124.07;;
23802;SDS011;12082;51.786;6.018;2023-10-31T02:57:12;127.03;;;119.60;;
23802;SDS011;12082;51.786;6.018;2023-10-31T02:59:38;128.80;;;122.00;;
23802;SDS011;12082;51.786;6.018;2023-10-31T03:02:03;130.67;;;123.13;;
23802;SDS011;12082;51.786;6.018;2023-10-31T03:04:29;123.27;;;116.53;;
23802;SDS011;12082;51.786;6.018;2023-10-31T03:06:54;112.70;;;106.30;;
23802;SDS011;12082;51.786;6.018;2023-10-31T03:09:20;123.53;;;116.63;;
23802;SDS011;12082;51.786;6.018;2023-10-31T03:11:45;122.50;;;115.27;;
23802;SDS011;12082;51.786;6.018;2023-10-31T03:14:11;130.33;;;123.17;;
23802;SDS011;12082;51.786;6.018;2023-10-31T03:16:36;132.80;;;125.83;;
23802;SDS011;12082;51.786;6.018;2023-10-31T03:19:03;145.87;;;138.13;;
23802;SDS011;12082;51.786;6.018;2023-10-31T03:21:29;142.17;;;134.17;;
23802;SDS011;12082;51.786;6.018;2023-10-31T03:23:54;135.00;;;127.13;;
23802;SDS011;12082;51.786;6.018;2023-10-31T03:26:20;137.53;;;130.03;;
23802;SDS011;12082;51.786;6.018;2023-10-31T03:28:47;141.07;;;133.53;;
23802;SDS011;12082;51.786;6.018;2023-10-31T03:31:12;151.73;;;143.43;;
23802;SDS011;12082;51.786;6.018;2023-10-31T03:33:39;154.07;;;146.00;;
23802;SDS011;12082;51.786;6.018;2023-10-31T03:36:05;147.17;;;139.13;;
23802;SDS011;12082;51.786;6.018;2023-10-31T03:38:31;148.93;;;141.33;;
23802;SDS011;12082;51.786;6.018;2023-10-31T03:40:57;146.90;;;139.37;;
23802;SDS011;12082;51.786;6.018;2023-10-31T03:43:23;157.80;;;149.40;;
23802;SDS011;12082;51.786;6.018;2023-10-31T03:45:48;152.13;;;143.70;;
23802;SDS011;12082;51.786;6.018;2023-10-31T03:48:17;158.90;;;150.63;;
23802;SDS011;12082;51.786;6.018;2023-10-31T03:50:43;164.47;;;155.87;;
23802;SDS011;12082;51.786;6.018;2023-10-31T03:53:09;148.07;;;140.67;;
23802;SDS011;12082;51.786;6.018;2023-10-31T03:55:35;171.77;;;161.47;;
23802;SDS011;12082;51.786;6.018;2023-10-31T03:58:00;156.37;;;148.37;;
23802;SDS011;12082;51.786;6.018;2023-10-31T04:00:26;165.13;;;156.33;;
23802;SDS011;12082;51.786;6.018;2023-10-31T04:02:51;179.20;;;170.00;;
23802;SDS011;12082;51.786;6.018;2023-10-31T04:05:17;154.20;;;146.00;;
23802;SDS011;12082;51.786;6.018;2023-10-31T04:07:43;173.67;;;164.67;;
23802;SDS011;12082;51.786;6.018;2023-10-31T04:10:10;166.50;;;157.47;;
23802;SDS011;12082;51.786;6.018;2023-10-31T04:12:36;167.30;;;158.57;;
23802;SDS011;12082;51.786;6.018;2023-10-31T04:15:02;152.33;;;144.17;;
23802;SDS011;12082;51.786;6.018;2023-10-31T04:17:28;157.80;;;149.70;;
23802;SDS011;12082;51.786;6.018;2023-10-31T04:19:53;157.27;;;148.93;;
23802;SDS011;12082;51.786;6.018;2023-10-31T04:22:19;156.43;;;147.97;;
23802;SDS011;12082;51.786;6.018;2023-10-31T04:24:44;159.03;;;150.80;;
23802;SDS011;12082;51.786;6.018;2023-10-31T04:27:10;161.70;;;152.90;;
23802;SDS011;12082;51.786;6.018;2023-10-31T04:29:36;168.30;;;159.67;;
23802;SDS011;12082;51.786;6.018;2023-10-31T04:32:01;158.57;;;150.30;;
23802;SDS011;12082;51.786;6.018;2023-10-31T04:34:27;139.83;;;132.73;;
23802;SDS011;12082;51.786;6.018;2023-10-31T04:36:52;136.37;;;129.27;;
23802;SDS011;12082;51.786;6.018;2023-10-31T04:39:18;153.37;;;145.07;;
23802;SDS011;12082;51.786;6.018;2023-10-31T04:41:43;139.63;;;132.20;;
23802;SDS011;12082;51.786;6.018;2023-10-31T04:44:09;138.20;;;131.00;;
23802;SDS011;12082;51.786;6.018;2023-10-31T04:46:34;138.17;;;130.93;;
23802;SDS011;12082;51.786;6.018;2023-10-31T04:49:00;122.47;;;116.10;;
23802;SDS011;12082;51.786;6.018;2023-10-31T04:51:25;114.40;;;108.43;;
23802;SDS011;12082;51.786;6.018;2023-10-31T04:53:51;105.03;;;99.30;;
23802;SDS011;12082;51.786;6.018;2023-10-31T04:56:17;111.13;;;105.20;;
23802;SDS011;12082;51.786;6.018;2023-10-31T04:58:42;98.77;;;93.63;;
23802;SDS011;12082;51.786;6.018;2023-10-31T05:01:11;102.10;;;96.63;;
23802;SDS011;12082;51.786;6.018;2023-10-31T05:03:38;110.83;;;105.07;;
23802;SDS011;12082;51.786;6.018;2023-10-31T05:06:04;93.80;;;88.87;;
23802;SDS011;12082;51.786;6.018;2023-10-31T05:08:31;119.17;;;112.40;;
23802;SDS011;12082;51.786;6.018;2023-10-31T05:10:57;108.70;;;102.97;;
23802;SDS011;12082;51.786;6.018;2023-10-31T05:13:23;105.13;;;99.67;;
23802;SDS011;12082;51.786;6.018;2023-10-31T05:15:49;119.00;;;112.47;;
23802;SDS011;12082;51.786;6.018;2023-10-31T05:18:15;119.33;;;112.43;;
23802;SDS011;12082;51.786;6.018;2023-10-31T05:20:41;127.40;;;120.63;;
23802;SDS011;12082;51.786;6.018;2023-10-31T05:23:06;134.13;;;126.60;;
23802;SDS011;12082;51.786;6.018;2023-10-31T05:25:32;116.50;;;110.37;;
23802;SDS011;12082;51.786;6.018;2023-10-31T05:27:58;114.90;;;108.63;;
23802;SDS011;12082;51.786;6.018;2023-10-31T05:30:24;125.90;;;118.47;;
23802;SDS011;12082;51.786;6.018;2023-10-31T05:32:50;121.60;;;115.07;;
23802;SDS011;12082;51.786;6.018;2023-10-31T05:35:16;127.60;;;120.80;;
23802;SDS011;12082;51.786;6.018;2023-10-31T05:37:42;120.33;;;113.90;;
23802;SDS011;12082;51.786;6.018;2023-10-31T05:40:08;136.33;;;128.93;;
23802;SDS011;12082;51.786;6.018;2023-10-31T05:42:34;119.57;;;113.17;;
23802;SDS011;12082;51.786;6.018;2023-10-31T05:44:59;115.17;;;109.13;;
23802;SDS011;12082;51.786;6.018;2023-10-31T05:47:25;115.60;;;109.50;;
23802;SDS011;12082;51.786;6.018;2023-10-31T05:49:50;129.00;;;121.60;;
23802;SDS011;12082;51.786;6.018;2023-10-31T05:52:16;123.63;;;116.97;;
23802;SDS011;12082;51.786;6.018;2023-10-31T05:54:42;132.00;;;125.07;;
23802;SDS011;12082;51.786;6.018;2023-10-31T05:57:07;128.87;;;121.93;;
23802;SDS011;12082;51.786;6.018;2023-10-31T05:59:33;131.23;;;124.00;;
23802;SDS011;12082;51.786;6.018;2023-10-31T06:01:58;141.33;;;133.63;;
23802;SDS011;12082;51.786;6.018;2023-10-31T06:04:24;131.13;;;123.80;;
23802;SDS011;12082;51.786;6.018;2023-10-31T06:06:50;134.23;;;126.80;;
23802;SDS011;12082;51.786;6.018;2023-10-31T06:09:16;127.70;;;120.90;;
23802;SDS011;12082;51.786;6.018;2023-10-31T06:11:42;134.13;;;126.87;;
23802;SDS011;12082;51.786;6.018;2023-10-31T06:14:08;153.10;;;144.83;;
23802;SDS011;12082;51.786;6.018;2023-10-31T06:16:39;130.90;;;123.47;;
23802;SDS011;12082;51.786;6.018;2023-10-31T06:19:06;146.27;;;137.67;;
23802;SDS011;12082;51.786;6.018;2023-10-31T06:21:31;131.03;;;124.07;;
23802;SDS011;12082;51.786;6.018;2023-10-31T06:23:57;146.63;;;138.60;;
23802;SDS011;12082;51.786;6.018;2023-10-31T06:26:22;133.43;;;126.17;;
23802;SDS011;12082;51.786;6.018;2023-10-31T06:28:48;129.47;;;122.63;;
23802;SDS011;12082;51.786;6.018;2023-10-31T06:31:13;167.87;;;158.83;;
23802;SDS011;12082;51.786;6.018;2023-10-31T06:33:39;141.93;;;134.27;;
23802;SDS011;12082;51.786;6.018;2023-10-31T06:36:04;170.50;;;161.20;;
23802;SDS011;12082;51.786;6.018;2023-10-31T06:38:31;144.63;;;136.67;;
23802;SDS011;12082;51.786;6.018;2023-10-31T06:40:57;152.57;;;143.97;;
23802;SDS011;12082;51.786;6.018;2023-10-31T06:43:22;149.23;;;141.10;;
23802;SDS011;12082;51.786;6.018;2023-10-31T06:45:48;142.03;;;134.23;;
23802;SDS011;12082;51.786;6.018;2023-10-31T06:48:13;157.57;;;149.20;;
23802;SDS011;12082;51.786;6.018;2023-10-31T06:50:39;136.53;;;129.30;;
23802;SDS011;12082;51.786;6.018;2023-10-31T06:53:04;128.97;;;122.20;;
23802;SDS011;12082;51.786;6.018;2023-10-31T06:55:30;136.10;;;128.70;;
23802;SDS011;12082;51.786;6.018;2023-10-31T06:57:56;164.13;;;155.20;;
23802;SDS011;12082;51.786;6.018;2023-10-31T07:00:21;165.10;;;155.00;;
23802;SDS011;12082;51.786;6.018;2023-10-31T07:02:47;145.03;;;136.80;;
23802;SDS011;12082;51.786;6.018;2023-10-31T07:05:13;144.77;;;136.97;;
23802;SDS011;12082;51.786;6.018;2023-10-31T07:07:39;164.07;;;155.07;;
23802;SDS011;12082;51.786;6.018;2023-10-31T07:10:04;147.40;;;138.90;;
23802;SDS011;12082;51.786;6.018;2023-10-31T07:12:31;155.83;;;147.47;;
23802;SDS011;12082;51.786;6.018;2023-10-31T07:14:56;155.37;;;146.83;;
23802;SDS011;12082;51.786;6.018;2023-10-31T07:17:23;145.87;;;138.03;;
23802;SDS011;12082;51.786;6.018;2023-10-31T07:19:49;125.43;;;118.80;;
23802;SDS011;12082;51.786;6.018;2023-10-31T07:22:15;131.87;;;124.93;;
23802;SDS011;12082;51.786;6.018;2023-10-31T07:24:40;142.97;;;135.17;;
23802;SDS011;12082;51.786;6.018;2023-10-31T07:27:06;136.70;;;129.07;;
23802;SDS011;12082;51.786;6.018;2023-10-31T07:29:32;129.20;;;122.23;;
23802;SDS011;12082;51.786;6.018;2023-10-31T07:31:57;136.13;;;128.53;;
23802;SDS011;12082;51.786;6.018;2023-10-31T07:34:23;126.00;;;119.07;;
23802;SDS011;12082;51.786;6.018;2023-10-31T07:36:48;132.70;;;125.53;;
23802;SDS011;12082;51.786;6.018;2023-10-31T07:39:14;131.53;;;124.37;;
23802;SDS011;12082;51.786;6.018;2023-10-31T07:41:39;122.60;;;115.80;;
23802;SDS011;12082;51.786;6.018;2023-10-31T07:44:05;126.13;;;119.57;;
23802;SDS011;12082;51.786;6.018;2023-10-31T07:46:31;123.27;;;116.43;;
23802;SDS011;12082;51.786;6.018;2023-10-31T07:48:57;112.30;;;105.63;;
23802;SDS011;12082;51.786;6.018;2023-10-31T07:51:23;129.63;;;122.90;;
23802;SDS011;12082;51.786;6.018;2023-10-31T07:53:48;124.47;;;117.97;;
23802;SDS011;12082;51.786;6.018;2023-10-31T07:56:14;107.87;;;102.37;;
23802;SDS011;12082;51.786;6.018;2023-10-31T07:58:41;96.57;;;91.57;;
23802;SDS011;12082;51.786;6.018;2023-10-31T08:01:07;103.40;;;97.83;;
23802;SDS011;12082;51.786;6.018;2023-10-31T08:03:35;111.73;;;104.90;;
23802;SDS011;12082;51.786;6.018;2023-10-31T08:06:02;97.00;;;91.97;;
23802;SDS011;12082;51.786;6.018;2023-10-31T08:08:29;113.53;;;107.70;;
23802;SDS011;12082;51.786;6.018;2023-10-31T08:10:54;112.10;;;105.80;;
23802;SDS011;12082;51.786;6.018;2023-10-31T08:13:22;105.03;;;99.53;;
23802;SDS011;12082;51.786;6.018;2023-10-31T08:15:47;113.67;;;107.47;;
23802;SDS011;12082;51.786;6.018;2023-10-31T08:18:13;118.43;;;112.20;;
23802;SDS011;12082;51.786;6.018;2023-10-31T08:20:38;105.10;;;99.77;;
23802;SDS011;12082;51.786;6.018;2023-10-31T08:23:04;117.03;;;110.63;;
23802;SDS011;12082;51.786;6.018;2023-10-31T08:25:30;111.40;;;105.60;;
23802;SDS011;12082;51.786;6.018;2023-10-31T08:27:55;110.90;;;104.97;;
23802;SDS011;12082;51.786;6.018;2023-10-31T08:30:21;107.90;;;102.50;;
23802;SDS011;12082;51.786;6.018;2023-10-31T08:32:47;96.87;;;91.73;;
23802;SDS011;12082;51.786;6.018;2023-10-31T08:35:13;79.23;;;74.93;;
23802;SDS011;12082;51.786;6.018;2023-10-31T08:37:38;87.63;;;82.53;;
23802;SDS011;12082;51.786;6.018;2023-10-31T08:40:04;63.47;;;59.93;;
23802;SDS011;12082;51.786;6.018;2023-10-31T08:42:30;63.73;;;60.13;;
23802;SDS011;12082;51.786;6.018;2023-10-31T08:44:56;75.00;;;70.90;;
23802;SDS011;12082;51.786;6.018;2023-10-31T08:47:21;66.27;;;62.83;;
23802;SDS011;12082;51.786;6.018;2023-10-31T08:49:47;66.97;;;63.47;;
23802;SDS011;12082;51.786;6.018;2023-10-31T08:52:13;68.10;;;64.60;;
23802;SDS011;12082;51.786;6.018;2023-10-31T08:54:39;70.27;;;66.73;;
23802;SDS011;12082;51.786;6.018;2023-10-31T08:57:04;60.93;;;57.70;;
23802;SDS011;12082;51.786;6.018;2023-10-31T08:59:30;72.70;;;68.90;;
23802;SDS011;12082;51.786;6.018;2023-10-31T09:01:55;75.40;;;71.60;;
23802;SDS011;12082;51.786;6.018;2023-10-31T09:04:21;65.20;;;61.90;;
23802;SDS011;12082;51.786;6.018;2023-10-31T09:06:47;62.80;;;59.70;;
23802;SDS011;12082;51.786;6.018;2023-10-31T09:09:12;69.13;;;65.60;;
23802;SDS011;12082;51.786;6.018;2023-10-31T09:11:38;88.43;;;83.90;;
23802;SDS011;12082;51.786;6.018;2023-10-31T09:14:04;104.93;;;99.43;;
23802;SDS011;12082;51.786;6.018;2023-10-31T09:16:29;113.70;;;107.87;;
23802;SDS011;12082;51.786;6.018;2023-10-31T09:18:55;119.23;;;112.97;;
23802;SDS011;12082;51.786;6.018;2023-10-31T09:21:20;127.90;;;121.73;;
23802;SDS011;12082;51.786;6.018;2023-10-31T09:23:46;122.13;;;116.17;;
23802;SDS011;12082;51.786;6.018;2023-10-31T09:26:12;120.27;;;113.97;;
23802;SDS011;12082;51.786;6.018;2023-10-31T09:28:38;121.30;;;115.40;;
23802;SDS011;12082;51.786;6.018;2023-10-31T09:31:05;122.43;;;116.13;;
23802;SDS011;12082;51.786;6.018;2023-10-31T09:33:30;118.40;;;112.67;;
23802;SDS011;12082;51.786;6.018;2023-10-31T09:35:56;121.03;;;115.17;;
23802;SDS011;12082;51.786;6.018;2023-10-31T09:38:22;115.67;;;108.80;;
23802;SDS011;12082;51.786;6.018;2023-10-31T09:40:47;113.23;;;105.83;;
23802;SDS011;12082;51.786;6.018;2023-10-31T09:43:13;105.37;;;100.17;;
23802;SDS011;12082;51.786;6.018;2023-10-31T09:45:38;116.33;;;110.63;;
23802;SDS011;12082;51.786;6.018;2023-10-31T09:48:04;113.93;;;108.53;;
23802;SDS011;12082;51.786;6.018;2023-10-31T09:50:30;106.80;;;101.10;;
23802;SDS011;12082;51.786;6.018;2023-10-31T09:52:56;95.90;;;91.17;;
23802;SDS011;12082;51.786;6.018;2023-10-31T09:55:22;112.57;;;106.30;;
23802;SDS011;12082;51.786;6.018;2023-10-31T09:57:49;130.00;;;123.23;;
23802;SDS011;12082;51.786;6.018;2023-10-31T10:00:15;136.43;;;129.33;;
23802;SDS011;12082;51.786;6.018;2023-10-31T10:02:41;122.03;;;115.73;;
23802;SDS011;12082;51.786;6.018;2023-10-31T10:05:08;113.67;;;108.20;;
23802;SDS011;12082;51.786;6.018;2023-10-31T10:07:34;100.37;;;95.23;;
23802;SDS011;12082;51.786;6.018;2023-10-31T10:10:03;86.83;;;82.43;;
23802;SDS011;12082;51.786;6.018;2023-10-31T10:12:29;71.33;;;67.97;;
23802;SDS011;12082;51.786;6.018;2023-10-31T10:14:56;90.50;;;85.80;;
23802;SDS011;12082;51.786;6.018;2023-10-31T10:17:23;83.20;;;79.03;;
23802;SDS011;12082;51.786;6.018;2023-10-31T10:20:22;86.60;;;82.20;;
23802;SDS011;12082;51.786;6.018;2023-10-31T10:22:42;93.63;;;87.80;;
23802;SDS011;12082;51.786;6.018;2023-10-31T10:25:11;89.77;;;85.50;;
23802;SDS011;12082;51.786;6.018;2023-10-31T10:27:42;78.90;;;75.00;;
23802;SDS011;12082;51.786;6.018;2023-10-31T10:30:08;85.03;;;80.70;;
23802;SDS011;12082;51.786;6.018;2023-10-31T10:32:34;88.07;;;82.97;;
23802;SDS011;12082;51.786;6.018;2023-10-31T10:35:00;89.10;;;84.77;;
23802;SDS011;12082;51.786;6.018;2023-10-31T10:37:26;82.33;;;78.33;;
23802;SDS011;12082;51.786;6.018;2023-10-31T10:39:52;85.80;;;81.50;;
23802;SDS011;12082;51.786;6.018;2023-10-31T10:42:21;79.83;;;75.93;;
23802;SDS011;12082;51.786;6.018;2023-10-31T10:44:54;84.73;;;80.40;;
23802;SDS011;12082;51.786;6.018;2023-10-31T10:47:26;83.03;;;78.90;;
23802;SDS011;12082;51.786;6.018;2023-10-31T10:49:52;82.73;;;78.73;;
23802;SDS011;12082;51.786;6.018;2023-10-31T10:52:26;80.20;;;76.40;;
23802;SDS011;12082;51.786;6.018;2023-10-31T10:57:48;68.80;;;65.10;;
23802;SDS011;12082;51.786;6.018;2023-10-31T11:00:21;65.80;;;62.40;;
23802;SDS011;12082;51.786;6.018;2023-10-31T11:02:50;71.97;;;68.23;;
23802;SDS011;12082;51.786;6.018;2023-10-31T11:05:18;67.87;;;64.63;;
23802;SDS011;12082;51.786;6.018;2023-10-31T11:07:44;74.93;;;71.03;;
23802;SDS011;12082;51.786;6.018;2023-10-31T11:10:11;76.30;;;72.47;;
23802;SDS011;12082;51.786;6.018;2023-10-31T11:12:37;74.33;;;70.03;;
23802;SDS011;12082;51.786;6.018;2023-10-31T11:15:06;70.87;;;66.77;;
23802;SDS011;12082;51.786;6.018;2023-10-31T11:17:34;71.63;;;67.93;;
23802;SDS011;12082;51.786;6.018;2023-10-31T11:20:01;71.90;;;68.10;;
23802;SDS011;12082;51.786;6.018;2023-10-31T11:22:40;70.77;;;66.77;;
23802;SDS011;12082;51.786;6.018;2023-10-31T11:25:09;72.07;;;68.50;;
23802;SDS011;12082;51.786;6.018;2023-10-31T11:27:37;68.83;;;64.23;;
23802;SDS011;12082;51.786;6.018;2023-10-31T11:30:19;70.90;;;67.33;;
23802;SDS011;12082;51.786;6.018;2023-10-31T11:33:00;75.80;;;71.87;;
23802;SDS011;12082;51.786;6.018;2023-10-31T11:35:26;64.63;;;61.53;;
23802;SDS011;12082;51.786;6.018;2023-10-31T11:38:08;63.07;;;60.00;;
23802;SDS011;12082;51.786;6.018;2023-10-31T11:40:34;58.57;;;55.53;;
23802;SDS011;12082;51.786;6.018;2023-10-31T11:43:04;70.50;;;66.73;;
23802;SDS011;12082;51.786;6.018;2023-10-31T11:48:07;68.47;;;64.63;;
23802;SDS011;12082;51.786;6.018;2023-10-31T11:50:34;65.27;;;61.43;;
23802;SDS011;12082;51.786;6.018;2023-10-31T11:53:01;70.67;;;67.03;;
23802;SDS011;12082;51.786;6.018;2023-10-31T11:55:38;58.70;;;55.73;;
23802;SDS011;12082;51.786;6.018;2023-10-31T12:01:06;44.60;;;42.13;;
23802;SDS011;12082;51.786;6.018;2023-10-31T12:03:40;44.30;;;41.17;;
23802;SDS011;12082;51.786;6.018;2023-10-31T12:06:07;45.00;;;42.80;;
23802;SDS011;12082;51.786;6.018;2023-10-31T12:08:37;49.50;;;47.07;;
23802;SDS011;12082;51.786;6.018;2023-10-31T12:13:33;53.60;;;51.00;;
23802;SDS011;12082;51.786;6.018;2023-10-31T12:16:00;65.70;;;62.57;;
23802;SDS011;12082;51.786;6.018;2023-10-31T12:18:27;67.53;;;64.23;;
23802;SDS011;12082;51.786;6.018;2023-10-31T12:20:53;73.67;;;69.93;;
23802;SDS011;12082;51.786;6.018;2023-10-31T12:23:18;79.03;;;75.13;;
23802;SDS011;12082;51.786;6.018;2023-10-31T12:25:50;84.37;;;80.07;;
23802;SDS011;12082;51.786;6.018;2023-10-31T12:28:20;70.80;;;67.40;;
23802;SDS011;12082;51.786;6.018;2023-10-31T12:30:47;61.87;;;58.87;;
23802;SDS011;12082;51.786;6.018;2023-10-31T12:33:14;62.10;;;59.10;;
23802;SDS011;12082;51.786;6.018;2023-10-31T12:35:40;61.83;;;58.97;;
23802;SDS011;12082;51.786;6.018;2023-10-31T12:38:06;62.87;;;59.67;;
23802;SDS011;12082;51.786;6.018;2023-10-31T12:40:34;65.17;;;62.07;;
23802;SDS011;12082;51.786;6.018;2023-10-31T12:43:00;71.87;;;68.00;;
23802;SDS011;12082;51.786;6.018;2023-10-31T12:45:27;66.23;;;62.70;;
23802;SDS011;12082;51.786;6.018;2023-10-31T12:48:06;67.40;;;63.87;;
23802;SDS011;12082;51.786;6.018;2023-10-31T12:50:34;69.97;;;66.60;;
23802;SDS011;12082;51.786;6.018;2023-10-31T12:53:05;67.70;;;64.43;;
23802;SDS011;12082;51.786;6.018;2023-10-31T12:55:37;69.20;;;65.77;;
23802;SDS011;12082;51.786;6.018;2023-10-31T12:58:03;63.80;;;60.77;;
23802;SDS011;12082;51.786;6.018;2023-10-31T13:00:30;65.77;;;60.77;;
23802;SDS011;12082;51.786;6.018;2023-10-31T13:03:02;61.27;;;58.30;;
23802;SDS011;12082;51.786;6.018;2023-10-31T13:05:31;52.37;;;50.00;;
23802;SDS011;12082;51.786;6.018;2023-10-31T13:07:58;55.90;;;53.20;;
23802;SDS011;12082;51.786;6.018;2023-10-31T13:10:25;60.07;;;57.17;;
23802;SDS011;12082;51.786;6.018;2023-10-31T13:12:52;63.27;;;60.27;;
23802;SDS011;12082;51.786;6.018;2023-10-31T13:15:19;62.37;;;59.27;;
23802;SDS011;12082;51.786;6.018;2023-10-31T13:17:47;56.63;;;54.03;;
23802;SDS011;12082;51.786;6.018;2023-10-31T13:20:14;59.80;;;56.87;;
23802;SDS011;12082;51.786;6.018;2023-10-31T13:22:41;72.90;;;69.50;;
23802;SDS011;12082;51.786;6.018;2023-10-31T13:25:07;64.23;;;61.13;;
23802;SDS011;12082;51.786;6.018;2023-10-31T13:27:36;69.57;;;66.03;;
23802;SDS011;12082;51.786;6.018;2023-10-31T13:30:03;68.13;;;64.37;;
23802;SDS011;12082;51.786;6.018;2023-10-31T13:32:30;78.50;;;74.73;;
23802;SDS011;12082;51.786;6.018;2023-10-31T13:34:55;73.77;;;70.23;;
23802;SDS011;12082;51.786;6.018;2023-10-31T13:37:21;74.83;;;68.20;;
23802;SDS011;12082;51.786;6.018;2023-10-31T13:39:47;57.37;;;54.77;;
23802;SDS011;12082;51.786;6.018;2023-10-31T13:42:12;61.33;;;58.23;;
23802;SDS011;12082;51.786;6.018;2023-10-31T13:44:41;70.40;;;67.10;;
23802;SDS011;12082;51.786;6.018;2023-10-31T13:47:07;67.17;;;63.83;;
23802;SDS011;12082;51.786;6.018;2023-10-31T13:49:33;67.07;;;63.93;;
23802;SDS011;12082;51.786;6.018;2023-10-31T13:51:58;62.57;;;59.67;;
23802;SDS011;12082;51.786;6.018;2023-10-31T13:54:24;59.23;;;56.40;;
23802;SDS011;12082;51.786;6.018;2023-10-31T13:56:50;70.63;;;67.03;;
23802;SDS011;12082;51.786;6.018;2023-10-31T13:59:15;76.87;;;73.23;;
23802;SDS011;12082;51.786;6.018;2023-10-31T14:01:43;71.23;;;67.87;;
23802;SDS011;12082;51.786;6.018;2023-10-31T14:04:10;76.87;;;72.97;;
23802;SDS011;12082;51.786;6.018;2023-10-31T14:06:38;81.87;;;77.80;;
23802;SDS011;12082;51.786;6.018;2023-10-31T14:09:04;72.13;;;68.73;;
23802;SDS011;12082;51.786;6.018;2023-10-31T14:11:30;80.30;;;76.43;;
23802;SDS011;12082;51.786;6.018;2023-10-31T14:13:56;91.30;;;86.80;;